createdAt,value
2022-08-05T00:01:36.184Z,88.60
2022-08-05T00:04:19.179Z,89.20
2022-08-05T00:06:47.295Z,89.10
2022-08-05T00:09:19.521Z,90.30
2022-08-05T00:11:49.457Z,89.30
2022-08-05T00:14:29.350Z,90.10
2022-08-05T00:16:58.686Z,89.90
2022-08-05T00:19:33.831Z,90.00
2022-08-05T00:22:12.884Z,90.10
2022-08-05T00:24:42.498Z,90.30
2022-08-05T00:27:10.412Z,90.40
2022-08-05T00:29:41.434Z,90.60
2022-08-05T00:32:15.288Z,90.50
2022-08-05T00:35:04.986Z,90.70
2022-08-05T00:37:50.707Z,90.60
2022-08-05T00:40:27.220Z,90.40
2022-08-05T00:43:01.283Z,90.50
2022-08-05T00:45:38.657Z,91.00
2022-08-05T00:48:31.382Z,90.70
2022-08-05T00:50:58.712Z,90.90
2022-08-05T00:54:00.330Z,91.30
2022-08-05T00:56:13.281Z,91.80
2022-08-05T00:58:45.226Z,91.30
2022-08-05T01:01:13.391Z,91.50
2022-08-05T01:03:40.730Z,91.60
2022-08-05T01:06:11.178Z,91.70
2022-08-05T01:08:44.201Z,92.60
2022-08-05T01:11:22.175Z,91.60
2022-08-05T01:14:08.478Z,91.90
2022-08-05T01:16:52.771Z,91.90
2022-08-05T01:19:30.430Z,92.30
2022-08-05T01:22:24.392Z,92.50
2022-08-05T01:25:40.908Z,92.70
2022-08-05T01:28:45.042Z,92.20
2022-08-05T01:31:32.104Z,92.40
2022-08-05T01:34:11.093Z,92.40
2022-08-05T01:36:47.146Z,92.70
2022-08-05T01:39:36.828Z,92.90
2022-08-05T01:42:07.113Z,93.30
2022-08-05T01:44:37.922Z,93.40
2022-08-05T01:47:05.554Z,93.40
2022-08-05T01:49:59.980Z,93.40
2022-08-05T01:52:23.939Z,93.50
2022-08-05T01:55:00.595Z,93.60
2022-08-05T01:58:10.132Z,93.80
2022-08-05T02:00:19.960Z,94.20
2022-08-05T02:03:03.690Z,94.40
2022-08-05T02:05:35.979Z,94.60
2022-08-05T02:08:04.773Z,94.70
2022-08-05T02:10:42.241Z,94.80
2022-08-05T02:13:27.981Z,95.00
2022-08-05T02:16:16.840Z,95.10
2022-08-05T02:18:56.356Z,95.20
2022-08-05T02:21:31.555Z,95.30
2022-08-05T02:24:19.427Z,95.10
2022-08-05T02:26:55.162Z,95.10
2022-08-05T02:29:59.199Z,95.20
2022-08-05T02:32:23.644Z,95.40
2022-08-05T02:34:54.993Z,95.50
2022-08-05T02:37:23.986Z,95.90
2022-08-05T02:39:53.384Z,95.80
2022-08-05T02:42:27.564Z,96.10
2022-08-05T02:45:00.347Z,95.70
2022-08-05T02:47:58.507Z,95.80
2022-08-05T02:50:19.017Z,95.90
2022-08-05T02:52:46.786Z,96.30
2022-08-05T02:55:14.527Z,96.20
2022-08-05T02:58:11.718Z,96.40
2022-08-05T03:00:35.417Z,96.80
2022-08-05T03:03:07.680Z,97.00
2022-08-05T03:06:55.042Z,97.30
2022-08-05T03:08:29.664Z,97.40
2022-08-05T03:11:41.114Z,97.40
2022-08-05T03:13:51.768Z,97.40
2022-08-05T03:16:30.564Z,97.80
2022-08-05T03:19:06.506Z,98.20
2022-08-05T03:21:41.587Z,98.00
2022-08-05T03:24:29.246Z,98.10
2022-08-05T03:27:00.270Z,98.40
2022-08-05T03:29:46.029Z,98.00
2022-08-05T03:32:15.727Z,98.20
2022-08-05T03:34:51.092Z,98.30
2022-08-05T03:37:20.740Z,98.20
2022-08-05T03:40:01.231Z,98.30
2022-08-05T03:42:32.406Z,98.60
2022-08-05T03:45:01.896Z,98.80
2022-08-05T03:47:51.196Z,98.70
2022-08-05T03:50:18.602Z,98.90
2022-08-05T03:55:53.357Z,99.00
2022-08-05T03:56:12.115Z,99.00
2022-08-05T03:58:48.247Z,98.90
2022-08-05T04:01:21.415Z,98.80
2022-08-05T04:04:08.899Z,98.90
2022-08-05T04:06:37.641Z,99.00
2022-08-05T04:09:06.356Z,98.90
2022-08-05T04:11:50.785Z,99.00
2022-08-05T04:14:30.179Z,99.20
2022-08-05T04:17:00.135Z,99.90
2022-08-05T04:19:29.147Z,99.50
2022-08-05T04:22:09.468Z,99.20
2022-08-05T04:24:52.925Z,99.30
2022-08-05T04:27:42.170Z,99.50
2022-08-05T04:30:11.551Z,99.60
2022-08-05T04:32:39.000Z,99.60
2022-08-05T04:35:07.439Z,99.60
2022-08-05T04:38:01.487Z,99.50
2022-08-05T04:40:44.525Z,99.60
2022-08-05T04:43:18.142Z,99.90
2022-08-05T04:45:55.047Z,99.70
2022-08-05T04:48:28.037Z,99.80
2022-08-05T04:51:02.736Z,99.80
2022-08-05T04:53:33.397Z,99.90
2022-08-05T04:56:33.068Z,99.90
2022-08-05T04:58:50.639Z,99.90
2022-08-05T05:02:04.053Z,99.90
2022-08-05T05:04:05.345Z,99.90
2022-08-05T05:06:38.901Z,99.90
2022-08-05T05:09:07.921Z,99.20
2022-08-05T05:11:53.878Z,99.90
2022-08-05T05:14:31.699Z,99.90
2022-08-05T05:17:03.322Z,99.80
2022-08-05T05:19:36.546Z,99.60
2022-08-05T05:22:24.452Z,99.60
2022-08-05T05:25:00.168Z,99.50
2022-08-05T05:27:41.579Z,99.90
2022-08-05T05:30:31.031Z,99.80
2022-08-05T05:33:13.915Z,99.80
2022-08-05T05:35:47.450Z,99.90
2022-08-05T05:38:22.935Z,99.90
2022-08-05T05:40:56.189Z,99.90
2022-08-05T05:43:54.337Z,99.90
2022-08-05T05:46:16.013Z,99.80
2022-08-05T05:48:47.702Z,99.90
2022-08-05T05:51:23.021Z,99.90
2022-08-05T05:53:57.976Z,99.90
2022-08-05T05:56:34.538Z,99.90
2022-08-05T05:59:08.255Z,99.90
2022-08-05T06:01:39.353Z,99.90
2022-08-05T06:04:08.277Z,99.90
2022-08-05T06:06:46.694Z,99.90
2022-08-05T06:09:18.601Z,99.90
2022-08-05T06:12:01.081Z,99.90
2022-08-05T06:14:30.745Z,99.90
2022-08-05T06:16:58.488Z,99.90
2022-08-05T06:19:34.586Z,99.90
2022-08-05T06:22:07.685Z,99.70
2022-08-05T06:24:42.087Z,99.90
2022-08-05T06:28:09.175Z,99.90
2022-08-05T06:30:17.614Z,99.90
2022-08-05T06:32:46.993Z,99.90
2022-08-05T06:35:15.499Z,99.60
2022-08-05T06:38:08.328Z,99.50
2022-08-05T06:40:42.232Z,99.20
2022-08-05T06:43:57.714Z,99.20
2022-08-05T06:46:04.118Z,99.10
2022-08-05T06:48:53.545Z,99.00
2022-08-05T06:51:29.809Z,99.20
2022-08-05T06:53:59.916Z,98.70
2022-08-05T06:56:28.445Z,98.60
2022-08-05T06:58:56.091Z,98.80
2022-08-05T07:01:31.973Z,99.20
2022-08-05T07:04:02.266Z,99.00
2022-08-05T07:06:30.133Z,98.00
2022-08-05T07:08:59.326Z,98.10
2022-08-05T07:11:28.659Z,98.40
2022-08-05T07:14:30.723Z,98.20
2022-08-05T07:18:00.619Z,97.60
2022-08-05T07:22:37.716Z,97.60
2022-08-05T07:25:22.833Z,97.40
2022-08-05T07:27:58.693Z,96.60
2022-08-05T07:30:33.436Z,95.90
2022-08-05T07:33:09.915Z,95.80
2022-08-05T07:36:02.711Z,96.10
2022-08-05T07:38:33.695Z,96.20
2022-08-05T07:42:09.013Z,95.60
2022-08-05T07:43:57.390Z,96.30
2022-08-05T07:46:26.784Z,96.90
2022-08-05T07:49:02.171Z,96.10
2022-08-05T07:51:40.671Z,95.90
2022-08-05T07:54:23.295Z,95.60
2022-08-05T07:57:13.546Z,96.00
2022-08-05T07:59:41.427Z,96.00
2022-08-05T08:02:15.374Z,96.50
2022-08-05T08:04:48.962Z,96.20
2022-08-05T08:07:22.407Z,95.50
2022-08-05T08:09:52.931Z,95.20
2022-08-05T08:12:35.521Z,95.70
2022-08-05T08:15:09.733Z,94.40
2022-08-05T08:17:49.664Z,94.60
2022-08-05T08:20:59.850Z,94.20
2022-08-05T08:23:20.980Z,93.10
2022-08-05T08:26:00.895Z,91.40
2022-08-05T08:28:36.223Z,90.40
2022-08-05T08:31:08.792Z,90.50
2022-08-05T08:33:38.329Z,90.50
2022-08-05T08:38:55.682Z,88.00
2022-08-05T08:41:26.144Z,85.00
2022-08-05T08:45:19.056Z,85.80
2022-08-05T08:47:47.800Z,83.30
2022-08-05T08:50:22.760Z,85.10
2022-08-05T08:52:52.957Z,86.60
2022-08-05T08:56:02.558Z,79.70
2022-08-05T08:58:12.818Z,79.70
2022-08-05T09:00:42.412Z,81.20
2022-08-05T09:03:15.956Z,78.80
2022-08-05T09:06:08.447Z,76.50
2022-08-05T09:08:30.237Z,77.20
2022-08-05T09:10:58.534Z,75.20
2022-08-05T09:13:31.758Z,76.60
2022-08-05T09:16:16.797Z,75.80
2022-08-05T09:18:44.493Z,74.20
2022-08-05T09:21:20.693Z,74.40
2022-08-05T09:24:10.208Z,75.40
2022-08-05T09:26:37.478Z,75.30
2022-08-05T09:29:08.966Z,74.10
2022-08-05T09:32:51.325Z,75.50
2022-08-05T09:34:23.175Z,73.00
2022-08-05T09:36:54.655Z,73.40
2022-08-05T09:39:41.503Z,73.30
2022-08-05T09:42:23.969Z,71.70
2022-08-05T09:44:56.813Z,72.60
2022-08-05T09:47:36.510Z,73.30
2022-08-05T09:50:18.185Z,74.40
2022-08-05T09:53:01.628Z,73.40
2022-08-05T09:55:56.261Z,71.90
2022-08-05T09:58:24.840Z,71.30
2022-08-05T10:01:14.965Z,73.20
2022-08-05T10:04:13.376Z,73.70
2022-08-05T10:06:59.329Z,74.00
2022-08-05T10:09:29.758Z,72.40
2022-08-05T10:12:18.589Z,72.60
2022-08-05T10:15:22.824Z,74.40
2022-08-05T10:18:14.305Z,72.60
2022-08-05T10:21:15.562Z,70.40
2022-08-05T10:23:59.297Z,70.00
2022-08-05T10:26:52.175Z,67.40
2022-08-05T10:29:23.549Z,66.30
2022-08-05T10:33:01.487Z,67.20
2022-08-05T10:34:40.781Z,65.80
2022-08-05T10:37:08.313Z,65.40
2022-08-05T10:40:03.308Z,67.00
2022-08-05T10:42:33.911Z,66.40
2022-08-05T10:45:21.387Z,63.50
2022-08-05T10:47:56.409Z,63.90
2022-08-05T10:51:21.465Z,63.70
2022-08-05T10:53:58.490Z,63.60
2022-08-05T10:56:45.510Z,62.70
2022-08-05T11:00:01.850Z,59.80
2022-08-05T11:02:14.438Z,58.00
2022-08-05T11:04:59.458Z,59.60
2022-08-05T11:07:33.157Z,60.90
2022-08-05T11:10:29.324Z,60.60
2022-08-05T11:12:57.825Z,56.60
2022-08-05T11:15:59.307Z,57.50
2022-08-05T11:18:34.553Z,57.60
2022-08-05T11:21:11.163Z,57.80
2022-08-05T11:24:02.593Z,53.40
2022-08-05T11:26:32.471Z,54.40
2022-08-05T11:29:11.514Z,53.40
2022-08-05T11:31:54.518Z,54.00
2022-08-05T11:34:50.807Z,54.00
2022-08-05T11:38:37.192Z,53.00
2022-08-05T11:41:14.008Z,51.20
2022-08-05T11:44:21.495Z,51.10
2022-08-05T11:47:13.808Z,51.40
2022-08-05T11:49:49.563Z,51.90
2022-08-05T11:52:29.881Z,51.40
2022-08-05T11:55:07.487Z,49.50
2022-08-05T11:58:08.334Z,50.70
2022-08-05T12:00:30.635Z,46.60
2022-08-05T12:02:58.215Z,46.50
2022-08-05T12:05:36.541Z,47.20
2022-08-05T12:08:09.758Z,45.20
2022-08-05T12:10:45.550Z,46.90
2022-08-05T12:13:27.888Z,44.00
2022-08-05T12:16:14.418Z,42.20
2022-08-05T12:18:48.742Z,44.30
2022-08-05T12:21:30.046Z,41.00
2022-08-05T12:24:06.912Z,42.50
2022-08-05T12:26:45.487Z,40.80
2022-08-05T12:29:17.980Z,40.80
2022-08-05T12:31:55.900Z,41.90
2022-08-05T12:34:31.090Z,43.60
2022-08-05T12:37:16.246Z,42.40
2022-08-05T12:39:52.263Z,41.60
2022-08-05T12:42:25.187Z,39.40
2022-08-05T12:44:52.523Z,39.20
2022-08-05T12:47:31.035Z,40.00
2022-08-05T12:50:04.719Z,39.30
2022-08-05T12:52:42.313Z,39.10
2022-08-05T12:55:32.501Z,40.00
2022-08-05T12:58:49.250Z,40.20
2022-08-05T13:02:01.313Z,41.30
2022-08-05T13:03:42.155Z,38.80
2022-08-05T13:06:17.892Z,40.30
2022-08-05T13:08:51.953Z,40.90
2022-08-05T13:12:01.569Z,43.00
2022-08-05T13:14:35.989Z,41.10
2022-08-05T13:17:24.989Z,40.50
2022-08-05T13:20:08.592Z,41.50
2022-08-05T13:22:47.147Z,39.40
2022-08-05T13:25:19.472Z,40.60
2022-08-05T13:27:52.934Z,40.30
2022-08-05T13:30:34.475Z,39.60
2022-08-05T13:33:04.095Z,40.00
2022-08-05T13:35:47.005Z,40.80
2022-08-05T13:38:28.214Z,40.40
2022-08-05T13:40:59.894Z,41.60
2022-08-05T13:43:45.235Z,40.60
2022-08-05T13:46:16.270Z,39.90
2022-08-05T13:48:57.740Z,40.60
2022-08-05T13:51:40.014Z,41.00
2022-08-05T13:54:11.906Z,40.50
2022-08-05T13:56:45.271Z,41.80
2022-08-05T13:59:23.972Z,41.30
2022-08-05T14:01:58.586Z,41.20
2022-08-05T14:04:54.368Z,41.10
2022-08-05T14:08:00.560Z,43.80
2022-08-05T14:10:28.039Z,42.20
2022-08-05T14:12:57.160Z,38.40
2022-08-05T14:16:08.685Z,39.80
2022-08-05T14:18:17.491Z,40.40
2022-08-05T14:20:55.141Z,41.50
2022-08-05T14:23:25.885Z,40.00
2022-08-05T14:25:58.773Z,38.90
2022-08-05T14:28:30.777Z,39.40
2022-08-05T14:31:00.490Z,37.60
2022-08-05T14:33:56.574Z,38.20
2022-08-05T14:36:15.178Z,38.50
2022-08-05T14:38:42.152Z,36.30
2022-08-05T14:41:11.642Z,38.50
2022-08-05T14:44:02.575Z,39.00
2022-08-05T14:46:30.635Z,40.40
2022-08-05T14:49:06.844Z,40.10
2022-08-05T14:51:42.678Z,40.70
2022-08-05T14:54:30.015Z,40.40
2022-08-05T14:56:59.171Z,41.50
2022-08-05T14:59:29.363Z,37.30
2022-08-05T15:02:03.551Z,37.50
2022-08-05T15:04:43.393Z,35.20
2022-08-05T15:07:11.858Z,34.90
2022-08-05T15:10:01.567Z,33.40
2022-08-05T15:12:41.077Z,32.90
2022-08-05T15:15:17.318Z,33.40
2022-08-05T15:18:05.840Z,32.30
2022-08-05T15:20:33.183Z,33.00
2022-08-05T15:23:05.318Z,34.40
2022-08-05T15:25:41.413Z,33.40
2022-08-05T15:28:18.848Z,30.60
2022-08-05T15:30:46.742Z,33.50
2022-08-05T15:33:56.954Z,32.70
2022-08-05T15:36:16.864Z,30.50
2022-08-05T15:38:51.200Z,30.40
2022-08-05T15:41:56.285Z,30.90
2022-08-05T15:44:25.565Z,30.90
2022-08-05T15:46:55.815Z,28.80
2022-08-05T15:49:40.793Z,29.60
2022-08-05T15:52:16.455Z,30.90
2022-08-05T15:54:44.378Z,29.60
2022-08-05T15:57:11.781Z,29.90
2022-08-05T15:59:40.345Z,29.40
2022-08-05T16:02:14.377Z,30.10
2022-08-05T16:04:43.184Z,30.80
2022-08-05T16:07:11.578Z,28.60
2022-08-05T16:09:41.514Z,31.00
2022-08-05T16:12:09.425Z,29.80
2022-08-05T16:14:38.529Z,28.20
2022-08-05T16:17:05.577Z,28.00
2022-08-05T16:20:05.105Z,29.80
2022-08-05T16:22:24.286Z,29.00
2022-08-05T16:24:55.004Z,28.60
2022-08-05T16:27:32.052Z,31.00
2022-08-05T16:30:23.044Z,31.80
2022-08-05T16:32:50.596Z,30.40
2022-08-05T16:35:17.886Z,30.00
2022-08-05T16:38:02.672Z,30.00
2022-08-05T16:40:32.482Z,31.30
2022-08-05T16:43:00.134Z,32.70
2022-08-05T16:46:06.487Z,32.40
2022-08-05T16:48:25.114Z,32.30
2022-08-05T16:50:54.205Z,33.10
2022-08-05T16:53:22.492Z,32.40
2022-08-05T16:55:50.119Z,29.90
2022-08-05T16:58:19.635Z,34.30
2022-08-05T17:00:48.165Z,33.20
2022-08-05T17:03:20.630Z,35.80
2022-08-05T17:05:53.711Z,35.80
2022-08-05T17:08:35.920Z,38.90
2022-08-05T17:11:12.837Z,39.90
2022-08-05T17:13:45.440Z,39.60
2022-08-05T17:16:30.129Z,41.10
2022-08-05T17:19:00.760Z,42.70
2022-08-05T17:21:35.735Z,44.00
2022-08-05T17:24:18.458Z,44.80
2022-08-05T17:26:52.647Z,45.50
2022-08-05T17:29:22.474Z,45.90
2022-08-05T17:31:59.932Z,46.50
2022-08-05T17:34:30.102Z,46.50
2022-08-05T17:37:00.397Z,46.70
2022-08-05T17:39:34.743Z,47.50
2022-08-05T17:42:19.801Z,47.90
2022-08-05T17:44:51.356Z,48.40
2022-08-05T17:47:22.977Z,48.90
2022-08-05T17:50:03.982Z,49.80
2022-08-05T17:52:54.824Z,49.90
2022-08-05T17:55:34.161Z,49.80
2022-08-05T17:58:09.436Z,50.10
2022-08-05T18:00:44.393Z,50.20
2022-08-05T18:03:28.009Z,50.10
2022-08-05T18:06:04.506Z,50.20
2022-08-05T18:08:33.466Z,51.20
2022-08-05T18:11:00.919Z,51.60
2022-08-05T18:13:36.734Z,51.80
2022-08-05T18:16:13.448Z,51.40
2022-08-05T18:18:41.601Z,52.30
2022-08-05T18:21:19.514Z,52.10
2022-08-05T18:23:47.359Z,52.20
2022-08-05T18:26:14.718Z,52.60
2022-08-05T18:28:46.605Z,52.70
2022-08-05T18:31:15.717Z,53.20
2022-08-05T18:33:46.800Z,52.80
2022-08-05T18:36:15.382Z,53.20
2022-08-05T18:38:42.996Z,54.80
2022-08-05T18:41:54.957Z,54.80
2022-08-05T18:43:57.186Z,54.80
2022-08-05T18:46:32.655Z,56.00
2022-08-05T18:49:20.801Z,55.40
2022-08-05T18:52:08.944Z,55.70
2022-08-05T18:54:36.307Z,55.90
2022-08-05T18:57:09.640Z,55.70
2022-08-05T19:00:02.169Z,55.90
2022-08-05T19:02:29.730Z,57.20
2022-08-05T19:06:06.183Z,56.90
2022-08-05T19:07:50.343Z,57.20
2022-08-05T19:10:26.788Z,57.50
2022-08-05T19:12:56.058Z,58.50
2022-08-05T19:15:57.766Z,59.30
2022-08-05T19:18:20.958Z,59.80
2022-08-05T19:20:52.396Z,60.30
2022-08-05T19:24:04.190Z,60.50
2022-08-05T19:26:08.636Z,59.70
2022-08-05T19:28:43.336Z,60.30
2022-08-05T19:31:12.909Z,60.80
2022-08-05T19:33:48.246Z,61.30
2022-08-05T19:36:27.112Z,61.30
2022-08-05T19:39:01.157Z,62.00
2022-08-05T19:42:05.621Z,62.50
2022-08-05T19:44:19.499Z,62.90
2022-08-05T19:46:46.577Z,61.30
2022-08-05T19:49:16.858Z,60.80
2022-08-05T19:52:09.040Z,60.40
2022-08-05T19:54:34.845Z,59.70
2022-08-05T19:57:09.464Z,60.00
2022-08-05T19:59:59.488Z,60.80
2022-08-05T20:02:31.369Z,60.80
2022-08-05T20:04:59.756Z,62.30
2022-08-05T20:07:46.931Z,62.10
2022-08-05T20:10:17.296Z,62.20
2022-08-05T20:12:49.103Z,61.20
2022-08-05T20:15:48.099Z,61.40
2022-08-05T20:18:09.692Z,59.80
2022-08-05T20:20:37.030Z,59.70
2022-08-05T20:23:05.667Z,59.80
2022-08-05T20:25:40.181Z,60.30
2022-08-05T20:28:13.649Z,60.00
2022-08-05T20:30:44.332Z,60.20
2022-08-05T20:33:12.091Z,60.70
2022-08-05T20:35:45.624Z,60.60
2022-08-05T20:38:20.224Z,60.90
2022-08-05T20:40:55.447Z,61.20
2022-08-05T20:43:58.239Z,61.50
2022-08-05T20:46:18.489Z,62.10
2022-08-05T20:48:52.202Z,63.70
2022-08-05T20:51:19.179Z,63.20
2022-08-05T20:53:56.312Z,62.60
2022-08-05T20:56:28.735Z,63.00
2022-08-05T20:58:59.937Z,63.00
2022-08-05T21:01:39.044Z,63.20
2022-08-05T21:04:10.389Z,64.20
2022-08-05T21:06:45.320Z,65.20
2022-08-05T21:09:14.902Z,65.70
2022-08-05T21:12:10.729Z,66.60
2022-08-05T21:14:35.098Z,67.10
2022-08-05T21:17:05.222Z,67.30
2022-08-05T21:19:46.669Z,68.60
2022-08-05T21:22:18.715Z,69.00
2022-08-05T21:24:51.492Z,69.80
2022-08-05T21:27:25.391Z,69.70
2022-08-05T21:29:58.396Z,69.10
2022-08-05T21:32:29.322Z,70.10
2022-08-05T21:35:18.415Z,70.20
2022-08-05T21:37:48.079Z,69.90
2022-08-05T21:40:22.446Z,69.90
2022-08-05T21:42:51.883Z,69.30
2022-08-05T21:45:32.585Z,69.80
2022-08-05T21:48:08.650Z,71.00
2022-08-05T21:50:37.245Z,71.10
2022-08-05T21:53:16.424Z,70.30
2022-08-05T21:56:05.808Z,70.30
2022-08-05T21:58:32.434Z,71.20
2022-08-05T22:01:00.369Z,71.10
2022-08-05T22:03:48.201Z,71.50
2022-08-05T22:06:22.854Z,71.10
2022-08-05T22:09:02.214Z,71.00
2022-08-05T22:11:41.534Z,71.10
2022-08-05T22:14:33.779Z,71.30
2022-08-05T22:17:01.438Z,71.90
2022-08-05T22:20:03.340Z,71.90
2022-08-05T22:22:17.152Z,71.30
2022-08-05T22:25:18.159Z,71.80
2022-08-05T22:28:10.722Z,70.30
2022-08-05T22:30:55.628Z,70.40
2022-08-05T22:33:55.776Z,70.40
2022-08-05T22:36:16.643Z,70.70
2022-08-05T22:38:48.657Z,70.60
2022-08-05T22:41:26.504Z,71.00
2022-08-05T22:44:08.653Z,71.20
2022-08-05T22:46:39.542Z,71.80
2022-08-05T22:49:23.441Z,73.10
2022-08-05T22:52:05.841Z,72.60
2022-08-05T22:54:36.258Z,73.20
2022-08-05T22:57:05.591Z,73.30
2022-08-05T22:59:46.443Z,73.70
2022-08-05T23:02:17.360Z,73.60
2022-08-05T23:04:51.372Z,74.30
2022-08-05T23:07:22.114Z,74.60
2022-08-05T23:10:01.683Z,74.70
2022-08-05T23:12:32.921Z,75.10
2022-08-05T23:15:08.727Z,75.20
2022-08-05T23:17:59.822Z,76.10
2022-08-05T23:20:24.489Z,76.30
2022-08-05T23:22:54.197Z,75.20
2022-08-05T23:25:54.795Z,75.40
2022-08-05T23:28:09.897Z,75.50
2022-08-05T23:30:40.500Z,75.90
2022-08-05T23:33:16.224Z,75.90
2022-08-05T23:35:52.702Z,76.10
2022-08-05T23:38:24.471Z,75.60
2022-08-05T23:40:52.779Z,75.60
2022-08-05T23:43:24.950Z,77.20
2022-08-05T23:46:20.632Z,76.90
2022-08-05T23:49:01.201Z,77.20
2022-08-05T23:51:52.877Z,77.10
2022-08-05T23:54:25.893Z,78.00
2022-08-05T23:56:55.742Z,78.00
2022-08-05T23:59:37.715Z,78.20
